Flamingo International Challenge - Inventory

Station: INVENTORY - T Race

Distance: 5 Miles    

Release: 16-Sep-2023 08:00

Weather Release:    Arrival:

Wind at Release:     Wind at Arrival:

Temp at Release: °    Temp at Arrival: °

Lofts: 240

Birds: 1118

Clocked: 1110

Good Luck to Everyone!
Drops Pos Breeder Pigeon Name Color Sex Team Ent Arrival Speed To Win Elg PdOp1Op2
1 Ruben Loft - FL 6371-AU23-AA She is pretty DC H 0 1 08:31:42.81 277.4844 00:00:00 Lost
2 Mollinedo Rivera Loft - FL 0004-AU23-AEM Golden Silver BC H 0 1 08:54:03.14 162.8052 00:22:20 Missing
3 Rmannys Wings - FL 28844-AU23-ARPU BB H 0 1 08:54:05.17 162.7033 00:22:22 Yes
4 Zhang Fl. Loft - FL 36619-AU23-ARPU BB H 0 1 08:54:05.26 162.6988 00:22:22 Yes
5 Riky and Bertico Loft - FL 0021-AU23-MATS BC H 0 1 08:54:05.28 162.6978 00:22:22 Yes
6 Drama Queen Loft - TX 1327-AU23-GCI 16054-1069 BB H 0 1 08:54:05.52 162.6858 00:22:23 Yes
7 Ferraro/Coletta - FL 0301-AU23-SOF BB H 0 1 08:54:05.75 162.6743 00:22:23 Lost
8 Tocallos Carlito Loft - FL 0026-AU23-DOPI BBSP H 0 1 08:54:05.77 162.6733 00:22:23 Yes
9 Woodsend/Perry - FL 6519-AU23-GHC BB H 0 1 08:54:06.49 162.6372 00:22:24 Yes
10 Winker And De La Fe Loft - 0903-AU23-GHC BC H 0 1 08:54:06.86 162.6187 00:22:24 Yes
11 Tradewinds Loft Fl - FL 0776-AU23-FEC BB H 0 1 08:54:07.44 162.5896 00:22:25 Yes
12 Jame&mike Loft - FL 0074-AU23-BIGM BB H 0 1 08:54:07.98 162.5626 00:22:25 Yes
13 Cr7 Loft - CA 32431-AU23-ARPU El Venado GRIZ H 0 1 08:54:08.68 162.5275 00:22:26 Yes
14 Gibara Loft - FL 2700-AU23-HRPC BB H 0 1 08:54:08.77 162.5230 00:22:26 Yes
15 S-And M - MI 0683-AU23-HMC BB H 0 1 08:54:09.72 162.4755 00:22:27 Yes
16 Triple L Loft - NY 0818-IF23-EMC Johnnie BB H 0 1 08:54:10.02 162.4605 00:22:27 Yes
17 Holguin Zaya Loft - FL 12030-AU23-JEDD BB H 0 1 08:54:10.22 162.4505 00:22:27 Yes
18 Ismel Lofts - FL 21563-AU23-ARPU BBWF H 0 1 08:54:10.23 162.4500 00:22:27 Yes
19 Fassio Loft - UT 3077-AU23-SLI 2050/999 BBSP H 0 1 08:54:10.34 162.4445 00:22:28 Yes
20 Las Ladies Varela Family Loft - 0256-AU23-MV BC H 0 1 08:54:10.47 162.4380 00:22:28 Yes
21 Jame&mike Loft - FL 0064-AU23-BIGM BBWF H 0 2 08:54:10.50 162.4365 00:22:28 Yes
22 El Hm Gallo Loft - FL 0107-AU23-PRPC BB H 0 1 08:54:11.02 162.4106 00:22:28 Yes
23 Patingula Loft - FL 26003-AU23-JEDD DCWF H 0 1 08:54:11.20 162.4016 00:22:28 Yes
24 Arencibia - FL 7767-AU23-ARPU Big 5 BB H 0 1 08:54:11.21 162.4011 00:22:28 Yes
25 Juan Ganga - FL 1244-AU23-ALON BB H 0 1 08:54:11.63 162.3801 00:22:29 Yes
26 Mury Loft - FL 12813-AU23-ARPU BB H 0 1 08:54:12.39 162.3422 00:22:30 Yes
27 Gaby Y Abner Loft - PR 3356-AU23-UCPR GRIZ H 0 1 08:54:12.40 162.3417 00:22:30 Yes
28 Alvaro Rey Loft - FL 0704-AU23-PRPC BB H 0 1 08:54:12.42 162.3407 00:22:30 Yes
29 936 Vinent Loft - GA 0655-AU23-NEA 6706/515 BBWF H 0 1 08:54:12.61 162.3312 00:22:30 Missing
30 Parkview Loft - NJ 0533-IF23-NWJ GRIZ H 0 1 08:54:12.63 162.3302 00:22:30 Missing
31 Alexey Loft - FL 12287-AU23-VITA SILV H 0 1 08:54:12.74 162.3247 00:22:30 Yes
32 Puerto Rico OLR - FL 0014-AU23-WSRP BCSP H 0 1 08:54:12.83 162.3202 00:22:30 Yes
33 David Gabler - FL 9271-AU23-GHC BB H 0 1 08:54:13.41 162.2913 00:22:31 Yes
34 Sweeney Gregoruk Welch - WI 0193-CU23-TBAY BB H 0 1 08:54:13.42 162.2908 00:22:31 Yes
35 Tomes Loft - OH 0680-AU23-IHC BKWF H 0 1 08:54:13.53 162.2853 00:22:31 Missing
36 Erik Hall - FL 0336-IF23-HALL BB H 0 1 08:54:13.66 162.2788 00:22:31 Yes
37 Tian Loft - FL 36453-AU23-ARPU BB H 0 1 08:54:13.77 162.2733 00:22:31 Yes
38 Ciro & Yosellaj Loft. - FL 2516-AU23-AA BB H 0 1 08:54:14.21 162.2514 00:22:31 Yes
39 Hector Lofts Pavel Rumonin - FL 0116-AU23-THP BBWF H 0 1 08:54:14.56 162.2339 00:22:32 Yes
40 239Loft - FL 4320-US23-ARPU BBWF H 0 1 08:54:14.57 162.2334 00:22:32 Yes
41 W T J Loft - TX 0495-AU23-WTJ 495-WTJ ๐Ÿ’Ž๐Ÿ’Ž๐Ÿฅ‡๐Ÿฅ‡ SLT H 0 1 08:54:14.69 162.2274 00:22:32 Yes
42 No Mercy Syndicate - FL 0166-AU23-NOME BC H 0 1 08:54:14.92 162.2160 00:22:32 Yes
43 99 Problems - FL 0019-AU23-EMIL RC H 0 1 08:54:14.95 162.2145 00:22:32 Yes
44 Tian Loft - FL 36566-AU23-ARPU BB H 0 2 08:54:14.98 162.2130 00:22:32 Yes
45 Sanso Loft - FL 0756-AU23-GHC BCWF H 0 1 08:54:14.99 162.2125 00:22:32 Yes
46 99 Problems - FL 0721-AU23-MILI ๐ŸŽฐ๐ŸŽฐ๐ŸŽฐ BB H 0 2 08:54:15.04 162.2100 00:22:32 Yes
47 Bogdan Lubak - NJ 9416-AU23-VITA BLSP H 0 1 08:54:15.42 162.1911 00:22:33 Yes
48 Jame&mike Loft - FL 0073-AU23-BIGM BB H 0 3 08:54:15.43 162.1906 00:22:33 Missing
49 Sanso Loft - FL 0737-AU23-GHC BB H 0 2 08:54:15.46 162.1891 00:22:33 Yes
50 Javier Gonzalez Loft - FL 0516-AU23-THP BB H 0 1 08:54:15.48 162.1881 00:22:33 Yes
51 Tian Loft - FL 36462-AU23-ARPU BB H 0 3 08:54:15.71 162.1766 00:22:33 Yes
52 El Russo Vazquez Loft - FL 8254-AU23-AA SLAT H 0 1 08:54:15.73 162.1756 00:22:33 Yes
53 Gibara Loft - FL 2670-AU23-HRPC BBWF H 0 2 08:54:15.76 162.1741 00:22:33 Yes
54 Denis Lofts - FL 6013-AU23-AA BB H 0 1 08:54:15.90 162.1671 00:22:33 Yes
55 Duque Loft - FL 0413-AU23-VITA BC H 0 1 08:54:15.92 162.1661 00:22:33 Lost
56 Otan 56 Loft - 35730-AU23-JEDD BB H 0 1 08:54:16.04 162.1602 00:22:33 Yes
57 Cr7 Loft - CA 32405-AU23-ARPU Adomando Guapo BB H 0 2 08:54:16.20 162.1522 00:22:33 Yes
58 Undoso - FL 0202-AU23-UNDO BB H 0 1 08:54:16.54 162.1353 00:22:34 Yes
59 C & K Loft - FL 0580-AU23-KENN BB H 0 1 08:54:17.30 162.0974 00:22:34 Yes
60 1-TorralbaPino Loft - FL 20390-AU23-ARPU 416 X 379 BB H 0 1 08:54:17.31 162.0969 00:22:35 Yes
61 South Motor Family Loft - FL 13402-AU23-ARPU RUDY 02 DC H 0 1 08:54:17.64 162.0805 00:22:35 Yes
62 Team U.S.A - FL 16432-AU23-ARPU Fighter BB H 0 1 08:54:17.65 162.0800 00:22:35 Yes
63 James Poole - SC 0054-AU23-GIOI BC H 0 1 08:54:17.77 162.0741 00:22:35 Missing
64 Gandara Loft - FL 9336-AU23-AA BC H 0 1 08:54:18.44 162.0407 00:22:36 Yes
65 Tenfei Loft - PA 0175-IF23-TENF BC H 0 1 08:54:18.55 162.0353 00:22:36 Yes
66 Erik Hall - FL 0335-IF23-HALL BC H 0 2 08:54:18.57 162.0343 00:22:36 Yes
67 Team Yadir & Tellito Loft - FL 18276-AU23-ARPU BBWF H 0 1 08:54:18.68 162.0288 00:22:36 Yes
68 Enfermero Loft - FL 0404-AU23-OCAL BC H 0 1 08:54:18.81 162.0223 00:22:36 Yes
69 Woodsend/Perry - FL 0344-AU23-GHC BB H 0 2 08:54:19.25 162.0005 00:22:36 Yes
70 Mury Loft - FL 12804-AU23-ARPU BB H 0 2 08:54:19.27 161.9995 00:22:36 Yes
71 Javier Gonzalez Loft - FL 0526-AU23-THP DC H 0 2 08:54:19.53 161.9865 00:22:37 Yes
72 Alvaro Alvarez - FL 3113-AU23-SAR BB H 0 1 08:54:19.54 161.9860 00:22:37 Yes
73 Undoso - FL 0233-AU23-UNDO BB H 0 2 08:54:20.17 161.9547 00:22:37 Yes
74 Nanez Family Loft - WI 8216-AU23-NANE BBWF H 0 1 08:54:20.59 161.9339 00:22:38 Missing
75 Bdk Family Loft - FL 0032-AU23-BDK BB H 0 1 08:54:20.61 161.9329 00:22:38 Yes
76 Pipi Loft - FL 0005-AU23-PIPI BC H 0 1 08:54:20.83 161.9220 00:22:38 Yes
77 Yuniel & Juansito Loft - FL 5811-AU23-ARPU BB H 0 1 08:54:20.92 161.9175 00:22:38 Missing
78 Papito Alabama - FL 1238-AU23-GHC BB H 0 1 08:54:20.94 161.9165 00:22:38 Yes
79 Patty & Tito Loft - FL 87043-AU23-ARPU BB H 0 1 08:54:21.33 161.8971 00:22:39 Yes
80 Arencibia - FL 7754-AU23-ARPU El cojo CHOC H 0 2 08:54:21.36 161.8957 00:22:39 Yes
81 Vita / Kendry / Jesus - FL 3281-AU23-THP BB H 0 1 08:54:21.63 161.8822 00:22:39 Yes
82 Papito Alabama - FL 3420-AU23-GHC DC H 0 2 08:54:21.65 161.8813 00:22:39 Yes
83 Dean Jamieson - FL 3652-AU23-GHC help #1 BC H 0 1 08:54:21.68 161.8798 00:22:39 Yes
84 Mexico Loft - FL 5113-AU23-GHC BB H 0 1 08:54:22.01 161.8634 00:22:39 Yes
85 Lian Loft Vladimir 59 Perez - FL 2350-AU23-LIAN BBWF H 0 1 08:54:22.39 161.8445 00:22:40 Yes
86 Barry & Shawnie - MI 0672-AU23-HMC BB H 0 1 08:54:22.44 161.8421 00:22:40 Yes
87 Remedios Brand Loft - FL 12138-AU23-ARPU BBWF H 0 1 08:54:22.69 161.8297 00:22:40 Yes
88 Power Of Faith - FL 1711-AU23-UTEN BBWF H 0 1 08:54:22.70 161.8292 00:22:40 Yes
89 Mexico Loft - FL 10055-AU23-GHC BB H 0 2 08:54:22.98 161.8153 00:22:40 Yes
90 Lian Loft Vladimir 59 Perez - FL 59141-AU23-VLAD BBWF H 0 2 08:54:23.38 161.7954 00:22:41 Yes
91 Bbl Loft - FL 36002-AU23-ARPU BB H 0 1 08:54:23.42 161.7935 00:22:41 Yes
92 1-TorralbaPino Loft - FL 20380-AU23-ARPU 6022196 X 20271 BB H 0 2 08:54:23.91 161.7692 00:22:41 Yes
93 EL ANIMAL - LA NEGRA - FL 0097-AU23-ELAN La vallita SILV H 0 1 08:54:24.36 161.7469 00:22:42 Missing
94 Bdk Family Loft - FL 0027-AU23-BDK BB H 0 2 08:54:24.76 161.7270 00:22:42 Yes
95 Alvaro Rey Loft - FL 0230-AU23-PRPC BCWF H 0 2 08:54:25.24 161.7033 00:22:42 Missing
96 Monzon Family Loft - FL 27377-AU23-JEDD BB H 0 1 08:54:25.46 161.6924 00:22:43 Yes
97 Otan 56 Loft - 0606-AU23-RIVE BBWF H 0 2 08:54:25.71 161.6800 00:22:43 Yes
98 El Dopi Loft - FL 38094-AU23-ARPU BC H 0 1 08:54:25.84 161.6736 00:22:43 Yes
99 Cr7 Loft - CA 32406-AU23-ARPU Problema me llamo yo BB H 0 3 08:54:25.86 161.6726 00:22:43 Missing
100 Vita / Kendry / Jesus - FL 3364-AU23-THP BB H 0 2 08:54:25.89 161.6711 00:22:43 Yes

There are 1110 bird records

Note: These Race Results are unofficial and subject to change until verified by the Race Committee and declared final.